Quetta Weather



Quetta's Current Weather

Temprature 33.75o clear sky

clear sky

Rain: 0 %

Min Temprature33.75o
Max Temprature33.75o
Humidity6
Wind Speed4.99 m/h
Sun Rise05:31:58
Sun Set19:37:09
Current Time: 26-Jun-2019 15:54:50
Lat/Lon: 30.19, 67.02




Quetta's Geo Location



Quetta's Weather Forecast

Time Overall Temp Min Temp Max Temp Humidity Wind Speed Rain
26-Jun-2019 (Wed)
17:00:00 clear sky 33.820 33.750 33.820 6 4.99 m/h 0 %
20:00:00 clear sky 28.100 28.047 28.100 11 3.5 m/h 0 %
23:00:00 clear sky 23.980 23.940 23.980 16 1.45 m/h 0 %
27-Jun-2019 (Thu)
02:00:00 clear sky 21.200 21.179 21.200 20 0.27 m/h 0 %
05:00:00 clear sky 19.165 19.165 19.165 26 0.67 m/h 0 %
08:00:00 clear sky 27.050 27.050 27.050 16 1.71 m/h 0 %
11:00:00 clear sky 32.074 32.074 32.074 6 2.92 m/h 0 %
14:00:00 clear sky 34.750 34.750 34.750 5 4.25 m/h 0 %
17:00:00 clear sky 34.680 34.680 34.680 4 4.83 m/h 0 %
20:00:00 clear sky 27.294 27.294 27.294 7 2.64 m/h 0 %
23:00:00 clear sky 22.935 22.935 22.935 9 1.58 m/h 0 %
28-Jun-2019 (Fri)
02:00:00 clear sky 20.928 20.928 20.928 15 0.68 m/h 0 %
05:00:00 clear sky 18.828 18.828 18.828 16 0.9 m/h 0 %
08:00:00 clear sky 28.269 28.269 28.269 10 0.23 m/h 0 %
11:00:00 clear sky 32.825 32.825 32.825 5 2.5 m/h 0 %
14:00:00 clear sky 35.031 35.031 35.031 4 3.4 m/h 0 %
17:00:00 clear sky 35.550 35.550 35.550 3 5 m/h 0 %
20:00:00 clear sky 28.150 28.150 28.150 6 3.37 m/h 0 %
23:00:00 clear sky 23.472 23.472 23.472 16 1.61 m/h 0 %
29-Jun-2019 (Sat)
02:00:00 clear sky 21.272 21.272 21.272 33 0.87 m/h 0 %
05:00:00 clear sky 20.239 20.239 20.239 39 1.32 m/h 0 %
08:00:00 clear sky 27.957 27.957 27.957 25 0.62 m/h 0 %
11:00:00 clear sky 33.450 33.450 33.450 9 4.23 m/h 0 %
14:00:00 clear sky 36.250 36.250 36.250 5 5.83 m/h 0 %
17:00:00 clear sky 35.791 35.791 35.791 5 6.16 m/h 0 %
20:00:00 clear sky 29.450 29.450 29.450 7 4.48 m/h 0 %
23:00:00 clear sky 24.750 24.750 24.750 9 2.2 m/h 0 %
30-Jun-2019 (Sun)
02:00:00 clear sky 21.646 21.646 21.646 30 1.14 m/h 0 %
05:00:00 clear sky 21.862 21.862 21.862 35 2.38 m/h 0 %
08:00:00 clear sky 28.252 28.252 28.252 25 2.27 m/h 0 %
11:00:00 clear sky 33.418 33.418 33.418 12 3.36 m/h 0 %
14:00:00 clear sky 36.208 36.208 36.208 7 3.5 m/h 0 %
17:00:00 clear sky 36.550 36.550 36.550 6 2.64 m/h 0 %
20:00:00 clear sky 28.250 28.250 28.250 12 1.37 m/h 0 %
23:00:00 clear sky 26.750 26.750 26.750 30 3.6 m/h 0 %
01-Jul-2019 (Mon)
02:00:00 clear sky 23.650 23.650 23.650 38 1.72 m/h 0 %
05:00:00 clear sky 22.035 22.035 22.035 39 1.4 m/h 0 %
08:00:00 clear sky 29.150 29.150 29.150 27 1 m/h 0 %
11:00:00 clear sky 34.750 34.750 34.750 12 2.63 m/h 0 %
14:00:00 clear sky 37.550 37.550 37.550 7 1.6 m/h 0 %


Quetta's Tourist Spots

Historical Places in Quetta

Famous Cities (60)